Time;durP1;ratioP1;P1;durP2;ratioP2;P2;SDS_P1;SDS_P2;PMS_P1;PMS_P2;Temp;Humidity;BMP_temperature;BMP_pressure;BME280_temperature;BME280_humidity;BME280_pressure;Samples;Min_cycle;Max_cycle;Signal;HPM_P1;HPM_P2
2022/10/03 00:00:23;;;;;;;8.03;3.60;;;11.60;99.90;;;;;;4932445;29;20457;-77
2022/10/03 00:03:21;;;;;;;12.50;3.60;;;11.50;99.90;;;;;;4987677;28;20449;-77
2022/10/03 00:06:09;;;;;;;8.07;2.63;;;11.70;99.90;;;;;;4985470;28;20523;-78
2022/10/03 00:08:50;;;;;;;13.70;3.10;;;11.70;99.90;;;;;;4978514;28;20488;-78
2022/10/03 00:11:26;;;;;;;12.33;5.67;;;11.70;99.90;;;;;;4978231;28;20420;-78
2022/10/03 00:14:00;;;;;;;14.63;4.00;;;11.70;99.90;;;;;;4978077;28;20500;-78
2022/10/03 00:16:38;;;;;;;9.57;3.63;;;11.70;99.90;;;;;;4978125;28;20442;-78
2022/10/03 00:19:16;;;;;;;13.00;4.53;;;11.70;99.90;;;;;;4979688;28;20429;-77
2022/10/03 00:21:57;;;;;;;17.37;4.07;;;11.70;99.90;;;;;;4983763;28;20790;-77
2022/10/03 00:24:33;;;;;;;12.80;4.87;;;11.70;99.90;;;;;;4983991;28;20813;-77
2022/10/03 00:27:08;;;;;;;13.33;3.20;;;11.70;99.90;;;;;;4983191;28;20441;-77
2022/10/03 00:29:45;;;;;;;12.77;4.40;;;11.70;99.90;;;;;;4983490;28;20465;-77
2022/10/03 00:32:40;;;;;;;11.10;2.63;;;11.60;99.90;;;;;;4982559;28;20400;-77
2022/10/03 00:35:20;;;;;;;9.90;3.70;;;11.60;99.90;;;;;;4981485;28;20476;-77
2022/10/03 00:38:05;;;;;;;13.70;2.93;;;11.60;99.90;;;;;;4978358;28;20503;-77
2022/10/03 00:40:55;;;;;;;15.73;4.10;;;11.70;99.90;;;;;;4977164;28;20400;-77
2022/10/03 00:43:50;;;;;;;8.37;3.07;;;11.70;99.90;;;;;;4976387;28;20448;-78
2022/10/03 00:46:41;;;;;;;12.90;3.53;;;11.70;99.90;;;;;;4976911;28;20429;-77
2022/10/03 00:49:50;;;;;;;13.03;3.47;;;11.80;99.90;;;;;;4976286;28;20469;-77
2022/10/03 00:52:29;;;;;;;15.30;3.70;;;11.80;99.90;;;;;;4976910;28;20437;-77
2022/10/03 00:55:12;;;;;;;18.70;3.77;;;11.80;99.90;;;;;;4979810;28;20480;-77
2022/10/03 00:58:05;;;;;;;14.23;4.10;;;12.10;99.90;;;;;;4980638;28;20537;-77
2022/10/03 01:00:35;;;;;;;15.93;3.50;;;11.70;99.90;;;;;;4976934;28;20425;-78
2022/10/03 01:03:19;;;;;;;19.13;4.20;;;11.60;99.90;;;;;;4976191;28;20461;-77
2022/10/03 01:05:59;;;;;;;10.87;5.00;;;11.80;99.90;;;;;;4976639;28;20473;-77
2022/10/03 01:08:47;;;;;;;9.23;3.70;;;11.80;99.90;;;;;;4976549;28;20441;-77
2022/10/03 01:11:28;;;;;;;12.80;3.90;;;11.80;99.90;;;;;;4976646;28;20496;-78
2022/10/03 01:14:15;;;;;;;8.43;4.73;;;11.80;99.90;;;;;;4977340;28;20488;-77
2022/10/03 01:16:54;;;;;;;11.23;3.23;;;11.80;99.90;;;;;;4980300;28;20433;-77
2022/10/03 01:19:36;;;;;;;11.33;3.90;;;11.80;99.90;;;;;;4981323;28;20789;-77
2022/10/03 01:22:19;;;;;;;9.80;3.33;;;11.80;99.90;;;;;;4978552;28;20456;-77
2022/10/03 01:24:58;;;;;;;7.33;3.80;;;11.80;99.90;;;;;;4977834;28;20826;-77
2022/10/03 01:27:33;;;;;;;9.87;4.67;;;11.80;99.90;;;;;;4977563;28;20442;-77
2022/10/03 01:30:21;;;;;;;12.43;3.30;;;11.80;99.90;;;;;;4976395;28;20444;-77
2022/10/03 01:32:54;;;;;;;8.77;4.13;;;11.40;99.90;;;;;;4976432;28;20810;-77
2022/10/03 01:35:31;;;;;;;13.90;3.90;;;11.80;99.90;;;;;;4976743;28;20784;-77
2022/10/03 01:38:09;;;;;;;10.20;4.87;;;11.80;99.90;;;;;;4980931;28;20438;-77
2022/10/03 01:40:41;;;;;;;11.97;3.87;;;11.80;99.90;;;;;;4982748;28;20495;-77
2022/10/03 01:43:20;;;;;;;6.63;3.20;;;11.80;99.90;;;;;;4979862;28;20465;-77
2022/10/03 01:45:59;;;;;;;6.13;3.50;;;11.80;99.90;;;;;;4977628;28;20448;-77
2022/10/03 01:48:33;;;;;;;10.57;3.50;;;11.80;99.90;;;;;;4977675;28;20468;-77
2022/10/03 01:51:06;;;;;;;10.30;3.10;;;11.70;99.90;;;;;;4977703;28;20891;-77
2022/10/03 01:53:47;;;;;;;8.23;4.33;;;11.80;99.90;;;;;;4977157;28;20520;-77
2022/10/03 01:56:25;;;;;;;12.33;3.30;;;11.90;99.90;;;;;;4975662;28;20425;-77
2022/10/03 01:59:00;;;;;;;7.93;3.43;;;11.80;99.90;;;;;;4975648;28;20514;-77
2022/10/03 02:01:39;;;;;;;9.90;4.03;;;11.90;99.90;;;;;;4975706;28;20408;-78
2022/10/03 02:04:14;;;;;;;15.07;5.17;;;11.70;99.90;;;;;;4975951;28;20472;-78
2022/10/03 02:06:52;;;;;;;8.83;3.57;;;11.70;99.90;;;;;;4978475;28;20433;-77
2022/10/03 02:09:28;;;;;;;12.43;3.57;;;11.70;99.90;;;;;;4976428;28;20469;-77
2022/10/03 02:12:08;;;;;;;8.40;3.40;;;11.70;99.90;;;;;;4975467;28;20819;-77
2022/10/03 02:14:49;;;;;;;8.77;4.07;;;11.80;99.90;;;;;;4974558;28;20905;-77
2022/10/03 02:17:29;;;;;;;8.53;2.80;;;11.80;99.90;;;;;;4974768;28;20440;-77
2022/10/03 02:20:03;;;;;;;9.13;2.87;;;11.80;99.90;;;;;;4974308;28;20447;-77
2022/10/03 02:22:33;;;;;;;4.60;2.97;;;11.80;99.90;;;;;;4974835;28;20434;-77
2022/10/03 02:25:11;;;;;;;15.27;3.80;;;11.80;99.90;;;;;;4974973;28;20576;-77
2022/10/03 02:28:21;;;;;;;8.63;3.00;;;11.80;99.90;;;;;;4974894;28;20441;-77
2022/10/03 02:31:05;;;;;;;8.00;3.33;;;11.90;99.90;;;;;;4974891;28;20492;-77
2022/10/03 02:34:01;;;;;;;8.63;3.07;;;11.90;99.90;;;;;;4974826;28;20824;-77
2022/10/03 02:36:58;;;;;;;8.30;3.43;;;11.90;99.90;;;;;;4974878;28;20835;-77
2022/10/03 02:39:52;;;;;;;7.97;3.33;;;11.90;99.90;;;;;;4974655;28;21002;-77
2022/10/03 02:42:42;;;;;;;6.77;2.57;;;11.80;99.90;;;;;;4974892;28;20495;-78
2022/10/03 02:45:53;;;;;;;10.57;3.33;;;11.90;99.90;;;;;;4974414;28;20470;-77
2022/10/03 02:48:58;;;;;;;14.90;3.30;;;11.90;99.90;;;;;;4974538;28;20448;-77
2022/10/03 02:51:57;;;;;;;15.27;2.60;;;11.90;99.90;;;;;;4973918;28;20465;-77
2022/10/03 02:55:09;;;;;;;12.00;2.87;;;11.90;99.90;;;;;;4973826;28;20469;-77
2022/10/03 02:58:12;;;;;;;9.67;3.00;;;11.90;99.90;;;;;;4974390;28;20811;-77
2022/10/03 03:01:05;;;;;;;13.77;4.43;;;11.90;99.90;;;;;;4974244;28;20790;-77
2022/10/03 03:03:52;;;;;;;11.37;3.00;;;11.90;99.90;;;;;;4974223;28;20469;-77
2022/10/03 03:06:52;;;;;;;11.73;3.47;;;11.90;99.90;;;;;;4974286;28;20488;-77
2022/10/03 03:09:56;;;;;;;10.40;2.73;;;11.90;99.90;;;;;;4975648;28;20457;-77
2022/10/03 03:12:49;;;;;;;10.63;3.50;;;12.00;99.90;;;;;;4977661;28;20916;-78
2022/10/03 03:16:04;;;;;;;10.73;3.20;;;12.00;99.90;;;;;;5008704;23;20514;-80
2022/10/03 03:18:37;;;;;;;13.77;4.60;;;12.00;99.90;;;;;;4939427;29;20470;-80
2022/10/03 03:21:18;;;;;;;13.53;3.77;;;11.90;99.90;;;;;;4995519;28;20440;-81
2022/10/03 03:24:06;;;;;;;6.03;3.23;;;11.90;99.90;;;;;;4999025;28;20802;-80
2022/10/03 03:26:52;;;;;;;11.07;3.13;;;12.00;99.90;;;;;;4998722;28;20517;-80
2022/10/03 03:29:30;;;;;;;8.80;3.47;;;11.90;99.90;;;;;;4999645;28;20452;-80
2022/10/03 03:32:03;;;;;;;10.00;4.03;;;11.90;99.90;;;;;;5001011;28;20399;-79
2022/10/03 03:34:41;;;;;;;9.30;3.80;;;11.90;99.90;;;;;;5001909;28;20475;-81
2022/10/03 03:37:12;;;;;;;9.70;3.63;;;11.90;99.90;;;;;;5000404;28;20439;-80
2022/10/03 03:39:53;;;;;;;11.83;3.63;;;11.90;99.90;;;;;;4999265;28;20415;-78
2022/10/03 03:42:59;;;;;;;10.20;3.50;;;11.90;99.90;;;;;;4999858;28;20411;-80
2022/10/03 03:45:56;;;;;;;8.00;3.50;;;11.90;99.90;;;;;;5001038;28;20445;-80
2022/10/03 03:49:15;;;;;;;11.37;3.33;;;11.90;99.90;;;;;;4983637;28;20598;-80
2022/10/03 03:51:48;;;;;;;6.27;2.80;;;11.90;99.90;;;;;;4973834;28;20463;-81
2022/10/03 03:54:51;;;;;;;13.27;3.80;;;12.00;99.90;;;;;;4998235;28;20533;-81
2022/10/03 03:57:54;;;;;;;14.77;3.23;;;11.90;99.90;;;;;;4998353;28;20452;-80
2022/10/03 04:00:30;;;;;;;11.03;3.50;;;11.90;99.90;;;;;;4997729;28;20407;-81
2022/10/03 04:03:24;;;;;;;11.93;4.53;;;11.90;99.90;;;;;;4998010;28;20437;-79
2022/10/03 04:06:13;;;;;;;9.20;3.23;;;11.80;99.90;;;;;;4998548;28;20919;-80
2022/10/03 04:09:00;;;;;;;5.83;2.83;;;11.80;99.90;;;;;;5010741;28;20456;-79
2022/10/03 04:11:38;;;;;;;7.57;2.80;;;11.80;99.90;;;;;;5011175;28;20478;-79
2022/10/03 04:14:27;;;;;;;14.50;4.80;;;11.80;99.90;;;;;;5009487;28;20488;-79
2022/10/03 04:20:12;;;;;;;13.27;3.03;;;11.80;99.90;;;;;;4996944;28;20479;-79
2022/10/03 04:22:56;;;;;;;7.40;3.43;;;11.80;99.90;;;;;;4999394;28;21025;-79
2022/10/03 04:25:48;;;;;;;6.00;2.80;;;11.80;99.90;;;;;;5003383;28;20842;-78
2022/10/03 04:28:44;;;;;;;10.83;3.60;;;11.80;99.90;;;;;;5002922;28;20449;-78
2022/10/03 04:31:23;;;;;;;8.33;3.70;;;11.80;99.90;;;;;;4993963;28;20542;-79
2022/10/03 04:34:07;;;;;;;11.50;3.30;;;11.80;99.90;;;;;;4998497;28;20547;-80
2022/10/03 04:37:01;;;;;;;11.27;4.60;;;11.80;99.90;;;;;;4998343;28;20442;-80
2022/10/03 04:39:36;;;;;;;3.77;3.47;;;11.90;99.90;;;;;;4997804;28;20419;-81
2022/10/03 04:42:12;;;;;;;10.57;3.00;;;11.90;99.90;;;;;;4998642;28;20873;-81
2022/10/03 04:45:14;;;;;;;9.70;4.00;;;11.90;99.90;;;;;;4999698;28;20472;-81
2022/10/03 04:47:46;;;;;;;8.67;3.07;;;12.10;99.90;;;;;;4998762;28;20529;-82
2022/10/03 04:50:33;;;;;;;10.03;3.90;;;11.90;99.90;;;;;;4999185;28;20534;-81
2022/10/03 04:53:17;;;;;;;13.30;3.77;;;11.90;99.90;;;;;;4997929;28;20429;-80
2022/10/03 04:55:49;;;;;;;9.53;3.60;;;11.90;99.90;;;;;;4999405;28;20468;-80
2022/10/03 04:58:25;;;;;;;13.65;4.60;;;11.90;99.90;;;;;;5001009;28;20445;-80
2022/10/03 05:01:05;;;;;;;33.00;19.90;;;11.90;99.90;;;;;;4999256;28;20201;-81
2022/10/03 05:03:42;;;;;;;33.13;17.13;;;11.90;99.90;;;;;;4999106;28;20503;-81
2022/10/03 05:06:25;;;;;;;20.17;9.43;;;11.90;99.90;;;;;;5006885;28;20418;-80
2022/10/03 05:08:59;;;;;;;25.77;9.37;;;11.90;99.90;;;;;;4996591;28;20768;-82
2022/10/03 05:11:40;;;;;;;80.60;49.53;;;12.00;99.90;;;;;;4996580;28;20652;-80
2022/10/03 05:14:12;;;;;;;10.10;3.73;;;12.00;99.90;;;;;;4997129;28;20538;-82
2022/10/03 05:16:45;;;;;;;26.33;10.83;;;11.90;99.90;;;;;;4997639;28;20821;-82
2022/10/03 05:19:43;;;;;;;11.10;3.30;;;11.80;99.90;;;;;;4997904;28;20447;-81
2022/10/03 05:22:22;;;;;;;48.40;26.83;;;11.70;99.90;;;;;;4996698;28;20553;-80
2022/10/03 05:24:58;;;;;;;26.10;13.10;;;11.80;99.90;;;;;;4997787;28;20857;-82
2022/10/03 05:27:35;;;;;;;21.10;8.00;;;12.00;99.90;;;;;;4999148;28;20527;-80
2022/10/03 05:30:07;;;;;;;22.93;12.70;;;11.90;99.90;;;;;;5000155;28;20435;-80
2022/10/03 05:32:41;;;;;;;12.40;4.80;;;12.00;99.90;;;;;;4997635;28;20440;-80
2022/10/03 05:35:30;;;;;;;15.80;8.60;;;11.90;99.90;;;;;;4998291;28;20472;-81
2022/10/03 05:38:13;;;;;;;23.23;13.20;;;12.00;99.90;;;;;;5000312;28;20432;-80
2022/10/03 05:40:44;;;;;;;30.73;14.50;;;12.00;99.90;;;;;;4998181;28;20418;-82
2022/10/03 05:43:26;;;;;;;18.97;7.80;;;12.30;99.90;;;;;;4997674;28;20427;-82
2022/10/03 05:46:03;;;;;;;6.73;3.03;;;12.10;99.90;;;;;;4996854;28;20458;-82
2022/10/03 05:48:45;;;;;;;21.23;8.50;;;12.10;99.90;;;;;;5007877;28;20426;-81
2022/10/03 05:51:38;;;;;;;11.93;3.23;;;12.10;99.90;;;;;;5009895;28;20480;-81
2022/10/03 05:54:27;;;;;;;20.40;4.30;;;12.00;99.90;;;;;;5007733;28;20499;-81
2022/10/03 05:57:29;;;;;;;11.80;3.70;;;12.00;99.90;;;;;;5005194;28;20411;-81
2022/10/03 06:00:06;;;;;;;6.83;3.27;;;12.10;99.90;;;;;;4951281;28;20443;-80
2022/10/03 06:02:54;;;;;;;10.83;2.70;;;12.10;99.90;;;;;;5001432;28;20402;-81
2022/10/03 06:05:31;;;;;;;14.77;2.80;;;11.90;99.90;;;;;;5002252;28;20439;-80
2022/10/03 06:08:19;;;;;;;10.40;2.75;;;12.00;99.90;;;;;;4999599;28;20440;-81
2022/10/03 06:10:54;;;;;;;6.67;2.97;;;11.90;99.90;;;;;;5000173;28;20244;-81
2022/10/03 06:13:33;;;;;;;12.63;3.47;;;11.70;99.90;;;;;;4996601;28;20463;-81
2022/10/03 06:16:14;;;;;;;11.67;3.73;;;12.00;99.90;;;;;;4996541;28;20433;-81
2022/10/03 06:19:06;;;;;;;7.33;3.13;;;11.90;99.90;;;;;;4996591;28;20436;-81
2022/10/03 06:22:01;;;;;;;7.20;3.70;;;11.90;99.90;;;;;;4996337;28;20400;-81
2022/10/03 06:25:04;;;;;;;17.43;6.00;;;11.90;99.90;;;;;;4983648;28;20495;-81
2022/10/03 06:28:10;;;;;;;8.40;3.30;;;11.90;99.90;;;;;;4999229;28;20419;-79
2022/10/03 06:31:17;;;;;;;8.37;4.13;;;11.90;99.90;;;;;;5001629;28;20568;-78
2022/10/03 06:34:20;;;;;;;17.07;3.93;;;11.90;99.90;;;;;;4945601;28;20470;-80
2022/10/03 06:37:06;;;;;;;16.93;6.50;;;11.80;99.90;;;;;;4946420;28;20520;-81
2022/10/03 06:40:17;;;;;;;14.20;5.90;;;12.00;99.90;;;;;;4995953;28;20443;-80
2022/10/03 06:43:01;;;;;;;12.70;6.00;;;12.00;99.90;;;;;;4998720;28;20424;-81
2022/10/03 06:46:14;;;;;;;9.20;2.77;;;12.00;99.90;;;;;;5000216;28;20443;-81
2022/10/03 06:49:22;;;;;;;9.03;3.17;;;12.00;99.90;;;;;;4965571;28;20547;-81
2022/10/03 06:52:24;;;;;;;9.07;3.13;;;11.90;99.90;;;;;;4939993;29;20539;-81
2022/10/03 06:55:20;;;;;;;17.50;4.90;;;12.00;99.90;;;;;;4977802;28;20497;-81
2022/10/03 06:58:27;;;;;;;14.30;3.43;;;12.00;99.90;;;;;;5000571;28;20419;-81
2022/10/03 07:01:04;;;;;;;7.47;4.50;;;12.00;99.90;;;;;;5000829;28;20403;-81
2022/10/03 07:04:06;;;;;;;11.70;2.50;;;12.10;99.90;;;;;;4999957;28;20442;-79
2022/10/03 07:06:50;;;;;;;8.10;3.13;;;12.10;99.90;;;;;;4999158;28;20480;-80
2022/10/03 07:09:45;;;;;;;21.47;7.10;;;12.20;99.90;;;;;;4999944;28;20892;-81
2022/10/03 07:13:00;;;;;;;18.20;2.90;;;12.10;99.90;;;;;;5000042;28;20472;-81
2022/10/03 07:15:58;;;;;;;12.60;3.27;;;12.00;99.90;;;;;;5000348;28;20472;-82
2022/10/03 07:19:07;;;;;;;14.23;3.67;;;12.00;99.90;;;;;;4999844;28;20435;-81
2022/10/03 07:22:28;;;;;;;9.53;3.10;;;12.00;99.90;;;;;;5000173;28;20403;-80
2022/10/03 07:25:24;;;;;;;6.47;2.63;;;12.10;99.90;;;;;;5000827;28;20442;-80
2022/10/03 07:28:04;;;;;;;13.70;4.13;;;12.10;99.90;;;;;;4998123;28;20451;-80
2022/10/03 07:30:46;;;;;;;8.50;2.77;;;12.30;99.90;;;;;;4997670;28;20891;-79
2022/10/03 07:33:40;;;;;;;10.83;4.40;;;12.50;99.90;;;;;;4998322;28;20402;-79
2022/10/03 07:40:00;;;;;;;6.90;2.43;;;12.40;99.90;;;;;;5008983;28;20387;-79
2022/10/03 07:43:13;;;;;;;11.87;3.43;;;12.50;99.90;;;;;;4997988;28;20452;-80
2022/10/03 07:45:44;;;;;;;8.90;2.73;;;12.50;99.90;;;;;;4999219;28;20501;-80
2022/10/03 07:48:44;;;;;;;8.77;3.00;;;12.50;99.90;;;;;;4999884;28;20527;-80
2022/10/03 07:51:22;;;;;;;7.53;2.80;;;12.40;99.90;;;;;;4999330;28;20486;-80
2022/10/03 07:54:23;;;;;;;9.63;2.10;;;12.50;99.90;;;;;;4999030;28;20468;-79
2022/10/03 07:57:02;;;;;;;8.80;3.33;;;12.60;99.90;;;;;;4999173;28;20410;-79
2022/10/03 08:00:08;;;;;;;5.30;2.13;;;12.60;99.90;;;;;;5007437;28;20404;-80
2022/10/03 08:03:23;;;;;;;10.77;2.80;;;12.60;99.90;;;;;;5017801;28;20428;-82
2022/10/03 08:06:04;;;;;;;11.83;3.17;;;12.50;99.90;;;;;;5011203;28;20535;-81
2022/10/03 08:09:11;;;;;;;16.03;3.77;;;12.60;99.90;;;;;;5000569;28;20497;-81
2022/10/03 08:12:19;;;;;;;11.00;3.80;;;12.70;99.90;;;;;;4999420;28;20468;-81
2022/10/03 08:14:57;;;;;;;9.73;3.03;;;12.70;99.90;;;;;;4999307;28;20447;-81
2022/10/03 08:17:54;;;;;;;11.93;4.40;;;12.50;99.90;;;;;;5000234;28;20515;-81
2022/10/03 08:20:41;;;;;;;14.10;2.90;;;12.80;99.90;;;;;;5001840;28;20444;-79
2022/10/03 08:23:44;;;;;;;7.50;2.67;;;12.40;99.90;;;;;;5001969;28;20424;-79
2022/10/03 08:26:17;;;;;;;10.07;2.67;;;12.80;99.90;;;;;;5003615;28;20448;-79
2022/10/03 08:29:08;;;;;;;7.00;2.93;;;12.90;99.90;;;;;;5004167;28;20866;-82
2022/10/03 08:32:10;;;;;;;9.30;2.90;;;12.80;99.90;;;;;;5005041;28;20506;-78
2022/10/03 08:35:15;;;;;;;8.47;2.30;;;12.90;99.90;;;;;;4978340;28;20470;-81
2022/10/03 08:38:12;;;;;;;10.63;3.50;;;12.90;99.90;;;;;;5007130;28;20432;-81
2022/10/03 08:41:28;;;;;;;13.60;3.63;;;13.00;99.90;;;;;;5002046;28;20411;-81
2022/10/03 08:44:41;;;;;;;10.53;2.80;;;13.10;99.90;;;;;;4999597;28;20476;-80
2022/10/03 08:47:32;;;;;;;10.40;3.70;;;13.60;99.90;;;;;;4998349;28;20455;-80
2022/10/03 08:50:40;;;;;;;8.83;3.17;;;13.10;99.90;;;;;;4999225;28;20425;-81
2022/10/03 08:53:47;;;;;;;8.53;4.37;;;13.40;99.90;;;;;;4998814;28;20480;-80
2022/10/03 08:56:17;;;;;;;10.10;2.93;;;13.30;99.90;;;;;;5001387;28;20508;-80
2022/10/03 08:59:07;;;;;;;7.10;3.63;;;13.10;99.90;;;;;;5001732;28;20440;-80
2022/10/03 09:02:20;;;;;;;13.13;3.70;;;13.20;99.90;;;;;;5003138;28;20861;-80
2022/10/03 09:05:17;;;;;;;9.13;3.20;;;13.40;99.90;;;;;;4982501;28;20623;-80
2022/10/03 09:08:15;;;;;;;6.40;3.80;;;13.20;99.90;;;;;;5001231;28;20803;-80
2022/10/03 09:11:19;;;;;;;5.37;2.77;;;13.50;99.90;;;;;;5000079;28;20428;-80
2022/10/03 09:14:38;;;;;;;12.27;4.13;;;13.50;99.90;;;;;;5046117;23;20487;-79
2022/10/03 09:17:28;;;;;;;7.83;3.37;;;13.60;99.90;;;;;;4959211;28;20424;-79
2022/10/03 09:20:16;;;;;;;6.77;2.57;;;13.70;99.90;;;;;;4948526;28;20450;-79
2022/10/03 09:23:23;;;;;;;9.00;3.10;;;13.60;99.90;;;;;;4958857;28;20832;-79
2022/10/03 09:26:08;;;;;;;6.33;2.50;;;13.70;99.90;;;;;;4958828;28;21022;-79
2022/10/03 09:29:03;;;;;;;9.23;2.47;;;13.60;99.90;;;;;;4958726;28;20431;-79
2022/10/03 09:32:06;;;;;;;8.93;4.17;;;13.60;99.90;;;;;;4960770;29;20474;-79
2022/10/03 09:34:55;;;;;;;11.50;2.90;;;13.60;99.90;;;;;;4959316;29;20472;-78
2022/10/03 09:37:42;;;;;;;7.10;2.90;;;13.40;99.90;;;;;;4960374;29;20442;-79
2022/10/03 09:40:39;;;;;;;10.00;4.63;;;13.50;99.90;;;;;;4958720;29;20420;-78
2022/10/03 09:43:47;;;;;;;7.87;3.00;;;13.70;99.90;;;;;;4959378;29;20441;-79
2022/10/03 09:50:11;;;;;;;8.63;2.57;;;13.90;99.90;;;;;;4940697;28;20435;-78
2022/10/03 09:53:04;;;;;;;10.53;3.27;;;14.00;99.90;;;;;;4918826;29;21081;-79
2022/10/03 09:55:40;;;;;;;7.40;2.53;;;14.10;99.90;;;;;;4956045;29;20521;-79
2022/10/03 09:58:28;;;;;;;4.50;2.33;;;14.20;99.90;;;;;;4958334;28;20442;-79
2022/10/03 10:01:12;;;;;;;13.53;4.13;;;14.20;99.90;;;;;;4958491;29;20441;-77
2022/10/03 10:04:27;;;;;;;3.73;2.30;;;14.10;99.90;;;;;;4956761;29;20438;-78
2022/10/03 10:07:33;;;;;;;8.70;4.30;;;14.20;99.90;;;;;;4957014;29;20446;-79
2022/10/03 10:10:37;;;;;;;9.07;2.60;;;14.30;99.90;;;;;;4937234;29;20450;-78
2022/10/03 10:13:22;;;;;;;8.87;2.63;;;14.20;99.90;;;;;;4963121;29;20481;-78
2022/10/03 10:16:15;;;;;;;11.47;3.10;;;14.20;99.90;;;;;;4969949;29;20505;-79
2022/10/03 10:19:25;;;;;;;12.27;2.10;;;14.00;99.90;;;;;;4968651;29;20446;-79
2022/10/03 10:22:23;;;;;;;10.60;3.93;;;14.10;99.90;;;;;;4959297;28;20446;-78
2022/10/03 10:25:30;;;;;;;8.70;2.73;;;14.00;99.90;;;;;;4957035;28;20478;-78
2022/10/03 10:28:40;;;;;;;10.37;2.80;;;14.10;99.90;;;;;;4939855;29;20894;-78
2022/10/03 10:32:04;;;;;;;8.03;2.90;;;14.20;99.90;;;;;;4956932;28;20996;-78
2022/10/03 10:35:28;;;;;;;5.43;2.80;;;14.40;99.90;;;;;;4884883;29;20882;-78
2022/10/03 10:38:19;;;;;;;9.60;2.27;;;14.50;99.90;;;;;;4961177;28;20450;-78
2022/10/03 10:41:28;;;;;;;7.00;3.47;;;14.60;99.90;;;;;;4963349;29;20518;-79
2022/10/03 10:44:28;;;;;;;13.67;3.50;;;14.70;99.90;;;;;;4959346;29;20449;-79
2022/10/03 10:47:19;;;;;;;4.63;2.10;;;14.70;99.90;;;;;;4940491;28;20446;-79
2022/10/03 10:50:19;;;;;;;14.53;3.87;;;14.90;99.90;;;;;;4956602;29;20466;-79
2022/10/03 10:53:24;;;;;;;8.63;2.83;;;14.80;99.90;;;;;;4952914;28;20856;-79
2022/10/03 10:56:48;;;;;;;7.13;2.60;;;14.60;1.00;;;;;;4956716;28;20505;-80
2022/10/03 10:59:51;;;;;;;7.10;2.47;;;15.00;1.00;;;;;;4956939;29;20455;-79
2022/10/03 11:03:18;;;;;;;5.53;2.43;;;15.00;1.00;;;;;;4956592;28;20485;-79
2022/10/03 11:06:35;;;;;;;8.40;2.37;;;15.00;1.00;;;;;;4957883;29;20524;-79
2022/10/03 11:09:49;;;;;;;4.90;2.37;;;14.90;1.00;;;;;;4916104;29;20456;-79
2022/10/03 11:12:57;;;;;;;7.60;2.77;;;15.00;99.90;;;;;;4916365;29;20467;-79
2022/10/03 11:16:08;;;;;;;2.73;2.10;;;15.10;99.90;;;;;;4956622;28;20478;-79
2022/10/03 11:19:11;;;;;;;12.23;2.33;;;15.00;99.90;;;;;;4948030;28;20454;-79
2022/10/03 11:22:32;;;;;;;7.33;2.40;;;15.10;99.90;;;;;;4957062;29;20430;-79
2022/10/03 11:25:46;;;;;;;5.80;1.80;;;15.10;99.90;;;;;;4956250;29;20469;-79
2022/10/03 11:28:57;;;;;;;11.87;3.47;;;15.10;99.90;;;;;;4957092;28;20453;-79
2022/10/03 11:31:57;;;;;;;6.67;2.67;;;15.20;99.90;;;;;;4938652;28;20429;-79
2022/10/03 11:35:00;;;;;;;4.73;2.20;;;15.20;99.90;;;;;;4956281;29;20857;-79
2022/10/03 11:37:43;;;;;;;6.60;2.40;;;15.40;1.00;;;;;;4963599;29;20446;-78
2022/10/03 11:40:27;;;;;;;6.20;2.20;;;15.50;1.00;;;;;;4969233;29;20895;-78
2022/10/03 11:43:00;;;;;;;4.50;2.60;;;14.80;1.00;;;;;;4968876;29;20441;-78
2022/10/03 11:45:32;;;;;;;11.17;2.23;;;14.70;1.00;;;;;;4966966;29;20448;-79
2022/10/03 11:48:27;;;;;;;5.60;2.10;;;14.60;1.00;;;;;;4963444;28;20438;-80
2022/10/03 11:50:58;;;;;;;5.27;2.80;;;14.70;1.00;;;;;;4956360;28;20463;-78
2022/10/03 11:53:44;;;;;;;4.57;3.30;;;14.70;1.00;;;;;;4959028;29;20478;-78
2022/10/03 11:56:27;;;;;;;2.20;1.93;;;14.80;10.10;;;;;;4960265;29;20484;-78
2022/10/03 11:59:29;;;;;;;4.70;2.10;;;14.90;1.00;;;;;;4959830;29;20415;-79
2022/10/03 12:02:13;;;;;;;4.73;1.87;;;14.90;1.00;;;;;;4946300;28;20451;-79
2022/10/03 12:04:51;;;;;;;5.60;2.30;;;14.90;1.00;;;;;;4959785;29;20521;-79
2022/10/03 12:10:38;;;;;;;7.93;2.77;;;14.70;1.00;;;;;;4966138;29;20582;-79
2022/10/03 12:13:13;;;;;;;9.17;3.00;;;14.80;1.00;;;;;;4966865;29;20482;-78
2022/10/03 12:15:45;;;;;;;5.23;2.20;;;14.80;1.00;;;;;;4968319;29;20488;-79
2022/10/03 12:18:17;;;;;;;7.80;2.70;;;14.90;1.00;;;;;;4967180;29;20485;-79
2022/10/03 12:21:12;;;;;;;10.97;2.80;;;15.00;1.00;;;;;;4965031;29;20534;-79
2022/10/03 12:23:59;;;;;;;7.90;3.17;;;17.30;47.80;;;;;;4964988;29;20447;-79
2022/10/03 12:26:42;;;;;;;12.00;2.90;;;14.90;16.50;;;;;;4968513;29;20401;-78
2022/10/03 12:29:12;;;;;;;6.87;3.07;;;15.00;29.50;;;;;;4969905;29;20448;-79
2022/10/03 12:31:43;;;;;;;6.83;2.30;;;15.00;20.60;;;;;;4971197;29;20466;-80
2022/10/03 12:34:26;;;;;;;5.17;3.30;;;14.90;2.30;;;;;;4959821;29;20635;-80
2022/10/03 12:37:09;;;;;;;7.33;3.33;;;14.90;4.50;;;;;;4958191;29;20485;-80
2022/10/03 12:39:46;;;;;;;2.67;2.20;;;15.60;1.00;;;;;;4958183;28;20505;-79
2022/10/03 12:42:26;;;;;;;7.50;2.90;;;14.90;1.00;;;;;;4958217;29;20445;-79
2022/10/03 12:44:58;;;;;;;9.03;2.27;;;15.00;1.00;;;;;;4958281;28;20909;-79
2022/10/03 12:47:40;;;;;;;6.63;2.30;;;15.10;1.00;;;;;;4959317;28;20445;-80
2022/10/03 12:50:19;;;;;;;6.10;2.30;;;15.00;1.00;;;;;;4959421;29;20442;-80
2022/10/03 12:52:57;;;;;;;6.27;2.70;;;15.00;1.00;;;;;;4959302;29;20869;-79
2022/10/03 12:55:29;;;;;;;5.87;2.23;;;15.20;1.00;;;;;;4958965;29;20472;-78
2022/10/03 12:58:04;;;;;;;3.97;2.70;;;15.30;1.00;;;;;;4959270;29;20489;-79
2022/10/03 13:00:35;;;;;;;6.43;3.30;;;15.40;1.00;;;;;;4958775;29;20438;-79
2022/10/03 13:03:29;;;;;;;5.20;2.83;;;15.50;1.00;;;;;;4960005;29;20414;-79
2022/10/03 13:06:15;;;;;;;5.60;2.57;;;15.60;1.00;;;;;;4960476;29;20441;-80
2022/10/03 13:08:53;;;;;;;4.10;2.00;;;15.50;1.00;;;;;;4958597;29;20463;-78
2022/10/03 13:11:32;;;;;;;4.30;2.47;;;15.50;1.00;;;;;;4958140;29;20413;-78
2022/10/03 13:14:19;;;;;;;2.20;2.00;;;15.40;1.00;;;;;;4958755;29;20493;-80
2022/10/03 13:16:59;;;;;;;9.40;2.00;;;15.40;1.00;;;;;;4958772;29;20975;-80
2022/10/03 13:19:30;;;;;;;4.57;2.57;;;15.40;1.00;;;;;;4958371;29;20438;-79
2022/10/03 13:22:07;;;;;;;7.10;4.17;;;15.50;1.00;;;;;;4963816;29;20920;-78
2022/10/03 13:24:40;;;;;;;5.47;1.70;;;15.50;99.90;;;;;;4964489;29;20485;-78
2022/10/03 13:27:25;;;;;;;5.13;2.00;;;15.50;1.00;;;;;;4964929;29;20857;-79
2022/10/03 13:30:03;;;;;;;4.10;1.70;;;15.60;1.00;;;;;;4960731;29;20826;-79
2022/10/03 13:32:33;;;;;;;4.27;1.80;;;15.50;1.00;;;;;;4962547;28;20566;-79
2022/10/03 13:38:25;;;;;;;5.17;1.80;;;15.60;1.00;;;;;;4961197;29;20418;-79
2022/10/03 13:40:57;;;;;;;8.27;2.17;;;15.50;1.00;;;;;;4958946;29;20461;-79
2022/10/03 13:43:36;;;;;;;7.83;2.30;;;15.60;99.90;;;;;;4963985;28;20427;-79
2022/10/03 13:46:10;;;;;;;5.23;1.93;;;15.60;1.00;;;;;;4958899;29;20521;-79
2022/10/03 13:48:38;;;;;;;8.20;2.70;;;15.60;1.00;;;;;;4957574;29;20448;-79
2022/10/03 13:51:14;;;;;;;6.90;2.23;;;15.60;99.90;;;;;;4957679;28;20979;-79
2022/10/03 13:53:53;;;;;;;3.60;1.47;;;16.20;83.40;;;;;;4957768;28;20544;-79
2022/10/03 13:56:38;;;;;;;8.77;1.93;;;15.70;1.00;;;;;;4957937;29;20445;-78
2022/10/03 13:59:19;;;;;;;6.33;2.80;;;15.70;99.90;;;;;;4956895;29;20434;-78
2022/10/03 14:01:55;;;;;;;7.23;1.93;;;16.00;99.90;;;;;;4956941;29;20426;-79
2022/10/03 14:04:55;;;;;;;9.13;2.50;;;15.80;43.50;;;;;;4956933;29;20455;-78
2022/10/03 14:07:31;;;;;;;8.17;2.53;;;15.80;99.90;;;;;;4954067;28;20534;-79
2022/10/03 14:10:12;;;;;;;4.30;2.30;;;15.80;1.00;;;;;;4958690;29;20858;-78
2022/10/03 14:12:54;;;;;;;10.07;3.20;;;15.40;99.90;;;;;;4957330;29;20804;-79
2022/10/03 14:15:31;;;;;;;3.33;2.30;;;15.70;99.90;;;;;;4957120;29;20488;-79
2022/10/03 14:18:10;;;;;;;7.73;4.03;;;15.70;99.90;;;;;;4957393;29;20418;-79
2022/10/03 14:20:59;;;;;;;8.60;3.30;;;15.70;58.00;;;;;;4957031;29;20434;-78
2022/10/03 14:23:32;;;;;;;10.43;3.20;;;15.60;99.90;;;;;;4956187;29;20457;-79
2022/10/03 14:26:05;;;;;;;6.67;2.40;;;15.70;1.00;;;;;;4957100;29;20470;-78
2022/10/03 14:28:40;;;;;;;3.93;3.30;;;15.80;1.00;;;;;;4956908;29;20787;-79
2022/10/03 14:31:14;;;;;;;6.30;2.50;;;15.80;99.90;;;;;;4957067;28;20453;-78
2022/10/03 14:33:46;;;;;;;7.78;2.45;;;15.40;99.90;;;;;;4954870;29;20964;-78
2022/10/03 14:36:36;;;;;;;11.30;5.23;;;15.80;99.90;;;;;;4956815;29;20206;-78
2022/10/03 14:39:22;;;;;;;8.67;5.07;;;15.50;1.00;;;;;;4960398;29;20442;-78
2022/10/03 14:42:13;;;;;;;11.93;3.00;;;15.70;99.90;;;;;;4961927;29;20465;-79
2022/10/03 14:44:43;;;;;;;12.80;4.23;;;15.70;20.60;;;;;;4957497;29;20470;-78
2022/10/03 14:47:14;;;;;;;8.63;2.40;;;15.50;99.90;;;;;;4956181;28;20446;-79